sensor_id;sensor_type;location;lat;lon;timestamp;P1;durP1;ratioP1;P2;durP2;ratioP2
12623;SDS011;6377;42.836;23.998;2022-07-30T16:21:31;10.10;;;9.10;;
12623;SDS011;6377;42.836;23.998;2022-07-30T16:24:00;15.48;;;13.93;;
12623;SDS011;6377;42.836;23.998;2022-07-30T16:26:30;14.85;;;8.63;;
12623;SDS011;6377;42.836;23.998;2022-07-30T16:29:00;11.75;;;8.23;;
12623;SDS011;6377;42.836;23.998;2022-07-30T16:31:27;11.57;;;8.07;;
12623;SDS011;6377;42.836;23.998;2022-07-30T16:33:55;12.43;;;7.97;;
12623;SDS011;6377;42.836;23.998;2022-07-30T16:36:24;9.82;;;7.57;;
12623;SDS011;6377;42.836;23.998;2022-07-30T16:38:52;10.82;;;8.90;;
12623;SDS011;6377;42.836;23.998;2022-07-30T16:41:29;13.32;;;7.80;;
12623;SDS011;6377;42.836;23.998;2022-07-30T16:44:02;8.52;;;7.63;;
12623;SDS011;6377;42.836;23.998;2022-07-30T16:46:30;9.95;;;8.07;;
12623;SDS011;6377;42.836;23.998;2022-07-30T16:48:58;11.02;;;8.50;;
12623;SDS011;6377;42.836;23.998;2022-07-30T16:51:27;11.30;;;8.05;;
12623;SDS011;6377;42.836;23.998;2022-07-30T16:53:54;16.45;;;10.75;;
12623;SDS011;6377;42.836;23.998;2022-07-30T16:56:25;9.65;;;8.70;;
12623;SDS011;6377;42.836;23.998;2022-07-30T16:58:53;11.35;;;8.95;;
12623;SDS011;6377;42.836;23.998;2022-07-30T17:01:21;33.42;;;19.88;;
12623;SDS011;6377;42.836;23.998;2022-07-30T17:03:48;75.43;;;50.55;;
12623;SDS011;6377;42.836;23.998;2022-07-30T17:06:16;53.78;;;37.47;;
12623;SDS011;6377;42.836;23.998;2022-07-30T17:08:48;38.83;;;29.70;;
12623;SDS011;6377;42.836;23.998;2022-07-30T17:11:15;29.42;;;19.95;;
12623;SDS011;6377;42.836;23.998;2022-07-30T17:13:43;28.85;;;16.80;;
12623;SDS011;6377;42.836;23.998;2022-07-30T17:16:11;15.73;;;12.68;;
12623;SDS011;6377;42.836;23.998;2022-07-30T17:18:39;19.63;;;15.57;;
12623;SDS011;6377;42.836;23.998;2022-07-30T17:21:06;23.15;;;15.30;;
12623;SDS011;6377;42.836;23.998;2022-07-30T17:23:34;12.65;;;10.00;;
12623;SDS011;6377;42.836;23.998;2022-07-30T17:26:03;9.13;;;8.23;;
12623;SDS011;6377;42.836;23.998;2022-07-30T17:28:32;9.18;;;8.20;;
12623;SDS011;6377;42.836;23.998;2022-07-30T17:30:59;11.32;;;8.05;;
12623;SDS011;6377;42.836;23.998;2022-07-30T17:33:30;9.90;;;7.63;;
12623;SDS011;6377;42.836;23.998;2022-07-30T17:36:03;9.05;;;7.88;;
12623;SDS011;6377;42.836;23.998;2022-07-30T17:38:32;10.02;;;8.20;;
12623;SDS011;6377;42.836;23.998;2022-07-30T17:41:00;10.27;;;8.77;;
12623;SDS011;6377;42.836;23.998;2022-07-30T17:43:29;13.35;;;10.63;;
12623;SDS011;6377;42.836;23.998;2022-07-30T17:45:56;18.48;;;13.48;;
12623;SDS011;6377;42.836;23.998;2022-07-30T17:48:23;27.17;;;15.02;;
12623;SDS011;6377;42.836;23.998;2022-07-30T17:50:51;24.55;;;14.52;;
12623;SDS011;6377;42.836;23.998;2022-07-30T17:53:18;12.50;;;10.30;;
12623;SDS011;6377;42.836;23.998;2022-07-30T17:55:45;19.73;;;13.30;;
12623;SDS011;6377;42.836;23.998;2022-07-30T17:58:13;26.25;;;15.52;;
12623;SDS011;6377;42.836;23.998;2022-07-30T18:00:42;17.05;;;11.35;;
12623;SDS011;6377;42.836;23.998;2022-07-30T18:03:09;13.02;;;9.85;;
12623;SDS011;6377;42.836;23.998;2022-07-30T18:05:37;12.05;;;9.27;;
12623;SDS011;6377;42.836;23.998;2022-07-30T18:08:05;16.67;;;12.00;;
12623;SDS011;6377;42.836;23.998;2022-07-30T18:10:32;9.02;;;8.23;;
12623;SDS011;6377;42.836;23.998;2022-07-30T18:12:59;11.52;;;8.13;;
12623;SDS011;6377;42.836;23.998;2022-07-30T18:15:27;10.05;;;8.27;;
12623;SDS011;6377;42.836;23.998;2022-07-30T18:17:56;12.27;;;8.05;;
12623;SDS011;6377;42.836;23.998;2022-07-30T18:20:23;7.90;;;7.10;;
12623;SDS011;6377;42.836;23.998;2022-07-30T18:22:50;9.48;;;7.63;;
12623;SDS011;6377;42.836;23.998;2022-07-30T18:25:18;10.25;;;7.65;;
12623;SDS011;6377;42.836;23.998;2022-07-30T18:27:45;9.50;;;7.28;;
12623;SDS011;6377;42.836;23.998;2022-07-30T18:30:13;9.25;;;7.10;;
12623;SDS011;6377;42.836;23.998;2022-07-30T18:32:41;10.23;;;8.25;;
12623;SDS011;6377;42.836;23.998;2022-07-30T18:35:10;10.90;;;9.57;;
12623;SDS011;6377;42.836;23.998;2022-07-30T18:37:37;9.85;;;8.90;;
12623;SDS011;6377;42.836;23.998;2022-07-30T18:40:05;7.85;;;7.05;;
12623;SDS011;6377;42.836;23.998;2022-07-30T18:42:33;7.55;;;6.85;;
12623;SDS011;6377;42.836;23.998;2022-07-30T18:45:00;10.27;;;7.07;;
12623;SDS011;6377;42.836;23.998;2022-07-30T18:47:27;7.82;;;6.80;;
12623;SDS011;6377;42.836;23.998;2022-07-30T18:49:55;7.40;;;6.78;;
12623;SDS011;6377;42.836;23.998;2022-07-30T18:52:35;6.80;;;6.20;;
12623;SDS011;6377;42.836;23.998;2022-07-30T18:55:06;8.13;;;6.38;;
12623;SDS011;6377;42.836;23.998;2022-07-30T18:57:35;6.03;;;5.43;;
12623;SDS011;6377;42.836;23.998;2022-07-30T19:00:12;6.90;;;5.45;;
12623;SDS011;6377;42.836;23.998;2022-07-30T19:02:40;6.85;;;5.22;;
12623;SDS011;6377;42.836;23.998;2022-07-30T19:05:08;5.93;;;5.32;;
12623;SDS011;6377;42.836;23.998;2022-07-30T19:07:37;5.93;;;5.38;;
12623;SDS011;6377;42.836;23.998;2022-07-30T19:10:05;6.50;;;4.85;;
12623;SDS011;6377;42.836;23.998;2022-07-30T19:12:33;5.13;;;4.63;;
12623;SDS011;6377;42.836;23.998;2022-07-30T19:15:00;5.30;;;4.80;;
12623;SDS011;6377;42.836;23.998;2022-07-30T19:17:27;5.30;;;4.80;;
12623;SDS011;6377;42.836;23.998;2022-07-30T19:19:57;5.10;;;4.60;;
12623;SDS011;6377;42.836;23.998;2022-07-30T19:22:41;6.35;;;4.60;;
12623;SDS011;6377;42.836;23.998;2022-07-30T19:25:11;6.07;;;4.80;;
12623;SDS011;6377;42.836;23.998;2022-07-30T19:27:38;4.60;;;4.20;;
12623;SDS011;6377;42.836;23.998;2022-07-30T19:30:06;5.00;;;4.50;;
12623;SDS011;6377;42.836;23.998;2022-07-30T19:32:34;5.72;;;5.13;;
12623;SDS011;6377;42.836;23.998;2022-07-30T19:35:01;5.85;;;5.07;;
12623;SDS011;6377;42.836;23.998;2022-07-30T19:37:29;5.57;;;4.57;;
12623;SDS011;6377;42.836;23.998;2022-07-30T19:39:57;4.80;;;4.40;;
12623;SDS011;6377;42.836;23.998;2022-07-30T19:42:28;5.07;;;4.60;;
12623;SDS011;6377;42.836;23.998;2022-07-30T19:44:55;6.05;;;4.80;;
12623;SDS011;6377;42.836;23.998;2022-07-30T19:47:22;5.53;;;4.70;;
12623;SDS011;6377;42.836;23.998;2022-07-30T19:49:50;5.65;;;5.10;;
12623;SDS011;6377;42.836;23.998;2022-07-30T19:52:18;5.32;;;4.82;;
12623;SDS011;6377;42.836;23.998;2022-07-30T19:54:45;6.85;;;5.07;;
12623;SDS011;6377;42.836;23.998;2022-07-30T19:57:14;5.32;;;4.68;;
12623;SDS011;6377;42.836;23.998;2022-07-30T19:59:41;5.13;;;4.68;;
12623;SDS011;6377;42.836;23.998;2022-07-30T20:02:09;6.28;;;5.32;;
12623;SDS011;6377;42.836;23.998;2022-07-30T20:04:39;5.82;;;4.70;;
12623;SDS011;6377;42.836;23.998;2022-07-30T20:07:10;6.80;;;5.75;;
12623;SDS011;6377;42.836;23.998;2022-07-30T20:09:40;6.38;;;5.78;;
12623;SDS011;6377;42.836;23.998;2022-07-30T20:12:08;6.70;;;6.10;;
12623;SDS011;6377;42.836;23.998;2022-07-30T20:14:38;6.93;;;6.28;;
12623;SDS011;6377;42.836;23.998;2022-07-30T20:17:11;7.30;;;6.60;;
12623;SDS011;6377;42.836;23.998;2022-07-30T20:19:38;6.78;;;6.18;;
12623;SDS011;6377;42.836;23.998;2022-07-30T20:22:06;7.55;;;6.85;;
12623;SDS011;6377;42.836;23.998;2022-07-30T20:24:37;8.77;;;7.20;;
12623;SDS011;6377;42.836;23.998;2022-07-30T20:27:04;9.88;;;7.80;;
12623;SDS011;6377;42.836;23.998;2022-07-30T20:29:32;9.07;;;7.40;;
12623;SDS011;6377;42.836;23.998;2022-07-30T20:32:01;8.48;;;7.68;;
12623;SDS011;6377;42.836;23.998;2022-07-30T20:34:28;9.50;;;7.55;;
12623;SDS011;6377;42.836;23.998;2022-07-30T20:36:55;9.30;;;8.07;;
12623;SDS011;6377;42.836;23.998;2022-07-30T20:39:23;9.23;;;8.25;;
12623;SDS011;6377;42.836;23.998;2022-07-30T20:41:51;8.63;;;7.80;;
12623;SDS011;6377;42.836;23.998;2022-07-30T20:44:32;8.43;;;7.57;;
12623;SDS011;6377;42.836;23.998;2022-07-30T20:47:01;11.13;;;8.43;;
12623;SDS011;6377;42.836;23.998;2022-07-30T20:49:28;9.65;;;8.32;;
12623;SDS011;6377;42.836;23.998;2022-07-30T20:51:56;9.57;;;8.57;;
12623;SDS011;6377;42.836;23.998;2022-07-30T20:54:24;9.80;;;8.80;;
12623;SDS011;6377;42.836;23.998;2022-07-30T20:56:51;9.52;;;7.93;;
12623;SDS011;6377;42.836;23.998;2022-07-30T20:59:19;8.98;;;8.07;;
12623;SDS011;6377;42.836;23.998;2022-07-30T21:01:49;9.85;;;8.02;;
12623;SDS011;6377;42.836;23.998;2022-07-30T21:04:18;9.75;;;8.32;;
12623;SDS011;6377;42.836;23.998;2022-07-30T21:06:45;9.93;;;8.30;;
12623;SDS011;6377;42.836;23.998;2022-07-30T21:09:14;9.00;;;8.10;;
12623;SDS011;6377;42.836;23.998;2022-07-30T21:11:50;11.15;;;8.25;;
12623;SDS011;6377;42.836;23.998;2022-07-30T21:14:18;10.02;;;8.55;;
12623;SDS011;6377;42.836;23.998;2022-07-30T21:16:45;9.90;;;8.10;;
12623;SDS011;6377;42.836;23.998;2022-07-30T21:19:13;10.25;;;8.25;;
12623;SDS011;6377;42.836;23.998;2022-07-30T21:21:44;8.80;;;7.90;;
12623;SDS011;6377;42.836;23.998;2022-07-30T21:24:12;9.40;;;8.05;;
12623;SDS011;6377;42.836;23.998;2022-07-30T21:26:43;7.93;;;6.80;;
12623;SDS011;6377;42.836;23.998;2022-07-30T21:29:13;7.95;;;5.60;;
12623;SDS011;6377;42.836;23.998;2022-07-30T21:31:43;7.32;;;6.63;;
12623;SDS011;6377;42.836;23.998;2022-07-30T21:34:11;6.05;;;5.45;;
12623;SDS011;6377;42.836;23.998;2022-07-30T21:36:38;6.18;;;5.60;;
12623;SDS011;6377;42.836;23.998;2022-07-30T21:39:11;7.75;;;5.85;;
12623;SDS011;6377;42.836;23.998;2022-07-30T21:41:38;7.85;;;5.10;;
12623;SDS011;6377;42.836;23.998;2022-07-30T21:44:05;5.65;;;4.68;;
12623;SDS011;6377;42.836;23.998;2022-07-30T21:46:33;7.00;;;5.22;;
12623;SDS011;6377;42.836;23.998;2022-07-30T21:49:01;5.82;;;4.88;;
12623;SDS011;6377;42.836;23.998;2022-07-30T21:51:31;6.60;;;4.60;;
12623;SDS011;6377;42.836;23.998;2022-07-30T21:53:58;5.70;;;4.95;;
12623;SDS011;6377;42.836;23.998;2022-07-30T21:56:27;5.35;;;4.85;;
12623;SDS011;6377;42.836;23.998;2022-07-30T21:58:57;5.60;;;5.07;;
12623;SDS011;6377;42.836;23.998;2022-07-30T22:01:24;4.43;;;4.00;;
12623;SDS011;6377;42.836;23.998;2022-07-30T22:03:57;6.85;;;4.35;;
12623;SDS011;6377;42.836;23.998;2022-07-30T22:06:27;5.38;;;4.80;;
12623;SDS011;6377;42.836;23.998;2022-07-30T22:08:55;7.57;;;4.78;;
12623;SDS011;6377;42.836;23.998;2022-07-30T22:11:32;5.40;;;4.90;;
12623;SDS011;6377;42.836;23.998;2022-07-30T22:14:03;7.43;;;4.97;;
12623;SDS011;6377;42.836;23.998;2022-07-30T22:16:30;6.13;;;4.85;;
12623;SDS011;6377;42.836;23.998;2022-07-30T22:18:57;5.05;;;4.55;;
12623;SDS011;6377;42.836;23.998;2022-07-30T22:21:26;4.72;;;4.22;;
12623;SDS011;6377;42.836;23.998;2022-07-30T22:23:53;5.30;;;4.50;;
12623;SDS011;6377;42.836;23.998;2022-07-30T22:26:21;5.65;;;4.20;;
12623;SDS011;6377;42.836;23.998;2022-07-30T22:28:50;4.30;;;3.90;;
12623;SDS011;6377;42.836;23.998;2022-07-30T22:31:17;4.80;;;3.72;;
12623;SDS011;6377;42.836;23.998;2022-07-30T22:33:44;5.57;;;3.58;;
12623;SDS011;6377;42.836;23.998;2022-07-30T22:36:11;5.00;;;3.55;;
12623;SDS011;6377;42.836;23.998;2022-07-30T22:38:39;3.67;;;3.38;;
12623;SDS011;6377;42.836;23.998;2022-07-30T22:41:06;3.80;;;3.40;;
12623;SDS011;6377;42.836;23.998;2022-07-30T22:43:35;2.80;;;2.60;;
12623;SDS011;6377;42.836;23.998;2022-07-30T22:46:17;3.10;;;2.50;;
12623;SDS011;6377;42.836;23.998;2022-07-30T22:48:47;2.65;;;2.40;;
12623;SDS011;6377;42.836;23.998;2022-07-30T22:51:17;3.47;;;3.17;;
12623;SDS011;6377;42.836;23.998;2022-07-30T22:53:50;4.30;;;3.13;;
12623;SDS011;6377;42.836;23.998;2022-07-30T22:56:18;2.50;;;2.30;;
12623;SDS011;6377;42.836;23.998;2022-07-30T22:58:48;3.67;;;3.13;;
12623;SDS011;6377;42.836;23.998;2022-07-30T23:01:16;3.38;;;2.75;;
12623;SDS011;6377;42.836;23.998;2022-07-30T23:03:47;4.53;;;3.00;;
12623;SDS011;6377;42.836;23.998;2022-07-30T23:06:20;3.25;;;2.95;;
12623;SDS011;6377;42.836;23.998;2022-07-30T23:08:48;3.42;;;3.03;;
12623;SDS011;6377;42.836;23.998;2022-07-30T23:11:15;3.63;;;3.33;;
12623;SDS011;6377;42.836;23.998;2022-07-30T23:13:52;4.07;;;3.00;;
12623;SDS011;6377;42.836;23.998;2022-07-30T23:16:24;3.50;;;2.85;;
12623;SDS011;6377;42.836;23.998;2022-07-30T23:18:52;3.08;;;2.78;;
12623;SDS011;6377;42.836;23.998;2022-07-30T23:21:23;4.40;;;2.70;;
12623;SDS011;6377;42.836;23.998;2022-07-30T23:23:50;3.00;;;2.70;;
12623;SDS011;6377;42.836;23.998;2022-07-30T23:26:17;5.60;;;3.10;;
12623;SDS011;6377;42.836;23.998;2022-07-30T23:28:45;3.17;;;2.70;;
12623;SDS011;6377;42.836;23.998;2022-07-30T23:31:12;3.50;;;3.20;;
12623;SDS011;6377;42.836;23.998;2022-07-30T23:33:44;4.20;;;3.38;;
12623;SDS011;6377;42.836;23.998;2022-07-30T23:36:11;3.15;;;2.85;;
12623;SDS011;6377;42.836;23.998;2022-07-30T23:38:39;3.95;;;3.15;;
12623;SDS011;6377;42.836;23.998;2022-07-30T23:41:06;3.55;;;3.20;;
12623;SDS011;6377;42.836;23.998;2022-07-30T23:43:33;3.35;;;3.03;;
12623;SDS011;6377;42.836;23.998;2022-07-30T23:46:01;3.25;;;2.95;;
12623;SDS011;6377;42.836;23.998;2022-07-30T23:48:29;3.55;;;3.10;;
12623;SDS011;6377;42.836;23.998;2022-07-30T23:50:58;3.38;;;2.95;;
12623;SDS011;6377;42.836;23.998;2022-07-30T23:53:25;3.92;;;3.00;;
12623;SDS011;6377;42.836;23.998;2022-07-30T23:55:52;3.28;;;2.92;;
12623;SDS011;6377;42.836;23.998;2022-07-30T23:58:19;3.55;;;3.10;;
